Time;durP1;ratioP1;P1;durP2;ratioP2;P2;SDS_P1;SDS_P2;PMS_P1;PMS_P2;Temp;Humidity;BMP_temperature;BMP_pressure;BME280_temperature;BME280_humidity;BME280_pressure;Samples;Min_cycle;Max_cycle;Signal;HPM_P1;HPM_P2
2024/01/24 00:00:30;;;;;;;0.70;0.70;;;;;;;;;;5073070;28;20722;-29
2024/01/24 00:02:56;;;;;;;2.17;0.93;;;;;;;;;;5073181;28;20322;-29
2024/01/24 00:05:21;;;;;;;8.05;1.63;;;;;;;;;;5073238;28;20809;-29
2024/01/24 00:07:46;;;;;;;2.20;1.00;;;;;;;;;;5073801;28;20108;-29
2024/01/24 00:10:11;;;;;;;3.00;1.30;;;;;;;;;;5073171;28;20247;-28
2024/01/24 00:12:36;;;;;;;4.15;1.30;;;;;;;;;;5073051;28;20263;-29
2024/01/24 00:15:02;;;;;;;2.30;1.30;;;;;;;;;;5073716;28;20022;-29
2024/01/24 00:17:27;;;;;;;4.30;1.55;;;;;;;;;;5073459;28;20285;-28
2024/01/24 00:19:53;;;;;;;3.77;1.50;;;;;;;;;;5073077;28;20052;-29
2024/01/24 00:22:18;;;;;;;3.00;1.40;;;;;;;;;;5073635;28;20279;-28
2024/01/24 00:24:43;;;;;;;3.80;1.50;;;;;;;;;;5073353;28;20699;-28
2024/01/24 00:27:08;;;;;;;4.72;1.73;;;;;;;;;;5073642;28;20408;-28
2024/01/24 00:29:33;;;;;;;4.77;1.50;;;;;;;;;;5073042;28;20490;-29
2024/01/24 00:31:58;;;;;;;4.83;1.87;;;;;;;;;;5073523;28;20366;-28
2024/01/24 00:34:24;;;;;;;3.80;1.60;;;;;;;;;;5072920;28;20742;-28
2024/01/24 00:36:50;;;;;;;2.80;1.43;;;;;;;;;;5073537;28;20282;-28
2024/01/24 00:39:15;;;;;;;3.50;1.63;;;;;;;;;;5071650;28;20270;-29
2024/01/24 00:41:41;;;;;;;6.45;1.80;;;;;;;;;;5072812;28;20472;-28
2024/01/24 00:44:06;;;;;;;4.05;1.73;;;;;;;;;;5072845;28;20020;-28
2024/01/24 00:46:32;;;;;;;4.67;1.70;;;;;;;;;;5072852;28;20017;-28
2024/01/24 00:48:57;;;;;;;3.60;1.70;;;;;;;;;;5075447;28;20258;-28
2024/01/24 00:51:22;;;;;;;5.53;2.00;;;;;;;;;;5077122;28;20303;-29
2024/01/24 00:53:51;;;;;;;4.18;1.70;;;;;;;;;;5076526;28;20259;-28
2024/01/24 00:56:17;;;;;;;5.53;1.80;;;;;;;;;;5076842;28;20039;-28
2024/01/24 00:58:42;;;;;;;4.13;1.73;;;;;;;;;;5076710;28;20021;-29
2024/01/24 01:01:07;;;;;;;4.78;1.70;;;;;;;;;;5076307;28;20055;-29
2024/01/24 01:03:32;;;;;;;4.10;1.73;;;;;;;;;;5076323;28;20478;-29
2024/01/24 01:05:57;;;;;;;2.77;1.40;;;;;;;;;;5076326;28;20247;-28
2024/01/24 01:08:23;;;;;;;8.13;1.80;;;;;;;;;;5076560;28;20250;-28
2024/01/24 01:10:48;;;;;;;6.80;1.63;;;;;;;;;;5076240;28;20350;-29
2024/01/24 01:13:13;;;;;;;5.10;1.60;;;;;;;;;;5076365;28;20525;-28
2024/01/24 01:15:38;;;;;;;4.72;1.48;;;;;;;;;;5076703;28;20475;-28
2024/01/24 01:18:03;;;;;;;3.77;1.60;;;;;;;;;;5076700;28;20020;-28
2024/01/24 01:20:29;;;;;;;7.22;1.95;;;;;;;;;;5076076;28;20257;-29
2024/01/24 01:22:54;;;;;;;4.18;1.40;;;;;;;;;;5075937;28;20032;-29
2024/01/24 01:25:20;;;;;;;3.07;1.40;;;;;;;;;;5076015;28;20112;-29
2024/01/24 01:27:46;;;;;;;7.22;1.52;;;;;;;;;;5076218;28;20339;-29
2024/01/24 01:30:11;;;;;;;2.83;1.40;;;;;;;;;;5074619;28;20435;-28
2024/01/24 01:32:38;;;;;;;6.75;1.48;;;;;;;;;;5076108;28;20266;-29
2024/01/24 01:35:04;;;;;;;7.28;1.45;;;;;;;;;;5076166;28;20059;-28
2024/01/24 01:37:29;;;;;;;4.32;1.42;;;;;;;;;;5076312;28;20365;-28
2024/01/24 01:39:54;;;;;;;5.97;1.47;;;;;;;;;;5076220;28;20020;-28
2024/01/24 01:42:19;;;;;;;5.80;1.33;;;;;;;;;;5075570;28;20285;-28
2024/01/24 01:44:46;;;;;;;2.83;1.20;;;;;;;;;;5075691;28;20095;-28
2024/01/24 01:47:11;;;;;;;6.47;1.50;;;;;;;;;;5075523;28;20255;-28
2024/01/24 01:49:38;;;;;;;7.75;1.30;;;;;;;;;;5075591;28;20104;-29
2024/01/24 01:52:03;;;;;;;7.85;1.50;;;;;;;;;;5075485;28;20378;-29
2024/01/24 01:54:29;;;;;;;7.22;1.27;;;;;;;;;;5075462;28;20020;-28
2024/01/24 01:56:54;;;;;;;9.02;1.30;;;;;;;;;;5075406;28;20082;-27
2024/01/24 01:59:19;;;;;;;5.43;1.30;;;;;;;;;;5075759;28;20059;-26
2024/01/24 02:01:45;;;;;;;10.65;1.58;;;;;;;;;;5075340;28;20434;-27
2024/01/24 02:04:10;;;;;;;5.32;1.25;;;;;;;;;;5075242;28;20012;-27
2024/01/24 02:06:35;;;;;;;7.15;1.50;;;;;;;;;;5075225;28;20059;-27
2024/01/24 02:09:01;;;;;;;7.77;1.33;;;;;;;;;;5075746;28;20013;-29
2024/01/24 02:11:26;;;;;;;6.97;1.45;;;;;;;;;;5075047;28;20734;-27
2024/01/24 02:14:00;;;;;;;5.25;1.33;;;;;;;;;;5075013;28;20091;-28
2024/01/24 02:16:26;;;;;;;11.40;1.55;;;;;;;;;;5075073;28;20024;-27
2024/01/24 02:18:51;;;;;;;5.80;1.60;;;;;;;;;;5075189;28;20525;-27
2024/01/24 02:21:17;;;;;;;7.35;1.42;;;;;;;;;;5073585;28;20095;-28
2024/01/24 02:23:42;;;;;;;12.68;1.30;;;;;;;;;;5074872;28;20487;-27
2024/01/24 02:26:09;;;;;;;8.60;1.30;;;;;;;;;;5074788;28;20016;-27
2024/01/24 02:28:34;;;;;;;7.05;2.05;;;;;;;;;;5075025;28;20009;-26
2024/01/24 02:30:59;;;;;;;7.33;1.37;;;;;;;;;;5074991;28;20111;-26
2024/01/24 02:33:24;;;;;;;8.00;1.37;;;;;;;;;;5075219;28;20251;-27
2024/01/24 02:35:49;;;;;;;5.47;1.33;;;;;;;;;;5074597;28;20345;-27
2024/01/24 02:38:15;;;;;;;8.90;1.50;;;;;;;;;;5075129;28;20292;-27
2024/01/24 02:40:40;;;;;;;10.85;2.40;;;;;;;;;;5074440;28;20626;-27
2024/01/24 02:43:05;;;;;;;8.23;1.77;;;;;;;;;;5074659;28;20094;-27
2024/01/24 02:45:30;;;;;;;6.93;1.67;;;;;;;;;;5073129;28;20491;-27
2024/01/24 02:47:55;;;;;;;10.38;1.63;;;;;;;;;;5074920;28;20247;-27
2024/01/24 02:50:21;;;;;;;20.23;2.87;;;;;;;;;;5074379;28;20017;-27
2024/01/24 02:52:46;;;;;;;8.23;1.70;;;;;;;;;;5074835;28;20259;-28
2024/01/24 02:55:15;;;;;;;10.43;1.98;;;;;;;;;;5074126;28;20258;-27
2024/01/24 02:57:40;;;;;;;11.70;1.90;;;;;;;;;;5074524;28;20024;-27
2024/01/24 03:00:07;;;;;;;11.13;1.80;;;;;;;;;;5074186;28;20078;-27
2024/01/24 03:02:32;;;;;;;10.48;2.05;;;;;;;;;;5073904;28;20550;-27
2024/01/24 03:04:57;;;;;;;11.20;1.90;;;;;;;;;;5074087;28;20150;-27
2024/01/24 03:07:23;;;;;;;18.93;2.60;;;;;;;;;;5074022;28;20104;-27
2024/01/24 03:09:48;;;;;;;18.48;2.10;;;;;;;;;;5073947;28;20251;-27
2024/01/24 03:12:13;;;;;;;15.57;2.30;;;;;;;;;;5073418;28;20025;-27
2024/01/24 03:14:38;;;;;;;13.07;2.43;;;;;;;;;;5074130;28;20258;-27
2024/01/24 03:17:03;;;;;;;19.27;2.60;;;;;;;;;;5073809;28;20316;-27
2024/01/24 03:19:28;;;;;;;15.23;2.53;;;;;;;;;;5073882;28;20133;-27
2024/01/24 03:21:54;;;;;;;12.97;2.40;;;;;;;;;;5073971;28;20082;-27
2024/01/24 03:24:19;;;;;;;16.90;2.28;;;;;;;;;;5074242;28;20358;-27
2024/01/24 03:26:44;;;;;;;13.07;2.60;;;;;;;;;;5074265;28;20067;-27
2024/01/24 03:29:09;;;;;;;16.38;2.47;;;;;;;;;;5073922;28;20258;-27
2024/01/24 03:31:34;;;;;;;16.97;2.27;;;;;;;;;;5073650;28;20108;-27
2024/01/24 03:34:00;;;;;;;12.00;2.17;;;;;;;;;;5073597;28;20288;-27
2024/01/24 03:36:25;;;;;;;13.88;2.42;;;;;;;;;;5073549;28;20255;-27
2024/01/24 03:38:50;;;;;;;20.50;2.40;;;;;;;;;;5073393;28;20112;-27
2024/01/24 03:41:15;;;;;;;21.63;2.83;;;;;;;;;;5073391;28;20278;-27
2024/01/24 03:43:40;;;;;;;20.37;2.73;;;;;;;;;;5073409;28;20040;-27
2024/01/24 03:46:06;;;;;;;23.07;3.77;;;;;;;;;;5073352;28;20243;-27
2024/01/24 03:48:31;;;;;;;16.83;2.70;;;;;;;;;;5073333;28;20251;-27
2024/01/24 03:50:56;;;;;;;20.03;2.93;;;;;;;;;;5073349;28;20021;-28
2024/01/24 03:53:22;;;;;;;20.05;2.47;;;;;;;;;;5073919;28;20254;-27
2024/01/24 03:55:47;;;;;;;19.58;2.67;;;;;;;;;;5073428;28;20383;-27
2024/01/24 03:58:12;;;;;;;32.03;4.57;;;;;;;;;;5073378;28;20029;-27
2024/01/24 04:00:38;;;;;;;19.45;3.20;;;;;;;;;;5073150;28;20024;-28
2024/01/24 04:03:03;;;;;;;21.60;3.07;;;;;;;;;;5073769;28;20025;-27
2024/01/24 04:05:28;;;;;;;25.70;2.90;;;;;;;;;;5073825;28;20253;-27
2024/01/24 04:07:53;;;;;;;22.93;3.13;;;;;;;;;;5073815;28;20028;-27
2024/01/24 04:10:19;;;;;;;19.80;2.65;;;;;;;;;;5073267;28;20763;-27
2024/01/24 04:12:44;;;;;;;19.25;2.65;;;;;;;;;;5073398;28;20390;-27
2024/01/24 04:15:09;;;;;;;21.63;2.87;;;;;;;;;;5073787;28;20024;-27
2024/01/24 04:17:34;;;;;;;28.57;3.13;;;;;;;;;;5073463;28;20259;-27
2024/01/24 04:20:00;;;;;;;22.93;3.03;;;;;;;;;;5073092;28;20742;-27
2024/01/24 04:22:25;;;;;;;21.58;3.38;;;;;;;;;;5073612;28;20020;-27
2024/01/24 04:24:50;;;;;;;34.27;3.50;;;;;;;;;;5077164;28;20391;-27
2024/01/24 04:27:15;;;;;;;21.17;3.53;;;;;;;;;;5077063;28;20247;-27
2024/01/24 04:29:44;;;;;;;22.40;3.33;;;;;;;;;;5077579;28;20017;-27
2024/01/24 04:32:09;;;;;;;22.10;3.92;;;;;;;;;;5077045;28;20266;-27
2024/01/24 04:34:34;;;;;;;25.73;3.88;;;;;;;;;;5077167;28;20020;-27
2024/01/24 04:37:00;;;;;;;25.05;3.83;;;;;;;;;;5077469;28;20439;-27
2024/01/24 04:39:25;;;;;;;26.40;3.70;;;;;;;;;;5076837;28;20024;-27
2024/01/24 04:41:50;;;;;;;29.17;4.03;;;;;;;;;;5077257;28;20353;-27
2024/01/24 04:44:15;;;;;;;26.58;3.90;;;;;;;;;;5076755;28;20255;-27
2024/01/24 04:46:40;;;;;;;29.58;3.92;;;;;;;;;;5077264;28;20009;-27
2024/01/24 04:49:07;;;;;;;29.05;3.47;;;;;;;;;;5076603;28;20068;-27
2024/01/24 04:51:32;;;;;;;25.20;4.18;;;;;;;;;;5076889;28;20540;-27
2024/01/24 04:53:58;;;;;;;31.55;3.72;;;;;;;;;;5076789;28;20013;-27
2024/01/24 04:56:23;;;;;;;30.60;4.00;;;;;;;;;;5076572;28;20073;-27
2024/01/24 04:58:48;;;;;;;31.23;4.80;;;;;;;;;;5076597;28;20025;-27
2024/01/24 05:01:13;;;;;;;31.40;4.03;;;;;;;;;;5076077;28;20662;-27
2024/01/24 05:03:38;;;;;;;37.37;4.80;;;;;;;;;;5076446;28;20379;-27
2024/01/24 05:06:04;;;;;;;37.20;3.93;;;;;;;;;;5076901;28;20250;-27
2024/01/24 05:08:29;;;;;;;32.35;4.43;;;;;;;;;;5076340;28;20637;-27
2024/01/24 05:10:55;;;;;;;29.33;4.80;;;;;;;;;;5076295;28;20349;-27
2024/01/24 05:13:20;;;;;;;35.35;4.97;;;;;;;;;;5076382;28;20254;-27
2024/01/24 05:15:45;;;;;;;34.15;4.15;;;;;;;;;;5076118;28;20428;-27
2024/01/24 05:18:10;;;;;;;32.08;4.25;;;;;;;;;;5076102;28;20021;-27
2024/01/24 05:20:37;;;;;;;22.67;3.90;;;;;;;;;;5076072;28;20070;-28
2024/01/24 05:23:03;;;;;;;31.30;4.80;;;;;;;;;;5075928;28;20271;-27
2024/01/24 05:25:28;;;;;;;36.60;4.95;;;;;;;;;;5076294;28;20017;-26
2024/01/24 05:27:54;;;;;;;40.08;4.47;;;;;;;;;;5075941;28;20379;-26
2024/01/24 05:30:19;;;;;;;28.53;4.37;;;;;;;;;;5075949;28;20092;-27
2024/01/24 05:32:44;;;;;;;24.73;4.37;;;;;;;;;;5075850;28;20020;-27
2024/01/24 05:35:09;;;;;;;30.88;4.47;;;;;;;;;;5075604;28;20412;-26
2024/01/24 05:37:35;;;;;;;37.73;4.50;;;;;;;;;;5074528;28;20024;-26
2024/01/24 05:40:00;;;;;;;32.30;4.37;;;;;;;;;;5076053;28;20265;-26
2024/01/24 05:42:25;;;;;;;37.93;4.73;;;;;;;;;;5075586;28;20270;-26
2024/01/24 05:44:50;;;;;;;33.17;4.23;;;;;;;;;;5076051;28;20239;-26
2024/01/24 05:47:15;;;;;;;28.53;4.53;;;;;;;;;;5074397;28;20263;-27
2024/01/24 05:49:41;;;;;;;33.53;4.63;;;;;;;;;;5075870;28;20298;-26
2024/01/24 05:52:06;;;;;;;37.78;5.07;;;;;;;;;;5075448;28;20281;-27
2024/01/24 05:54:31;;;;;;;32.17;4.55;;;;;;;;;;5075412;28;20013;-26
2024/01/24 05:56:57;;;;;;;34.70;4.90;;;;;;;;;;5075482;28;20025;-26
2024/01/24 05:59:22;;;;;;;50.85;6.30;;;;;;;;;;5075639;28;20051;-27
2024/01/24 06:01:47;;;;;;;41.42;5.35;;;;;;;;;;5075325;28;20040;-26
2024/01/24 06:04:13;;;;;;;34.17;4.97;;;;;;;;;;5075346;28;20009;-27
2024/01/24 06:06:38;;;;;;;36.65;4.85;;;;;;;;;;5075228;28;20058;-26
2024/01/24 06:09:03;;;;;;;34.90;5.88;;;;;;;;;;5075155;28;20074;-27
2024/01/24 06:11:29;;;;;;;48.30;5.75;;;;;;;;;;5075371;28;20038;-27
2024/01/24 06:13:54;;;;;;;35.03;5.33;;;;;;;;;;5075096;28;20012;-26
2024/01/24 06:16:19;;;;;;;44.40;5.53;;;;;;;;;;5074998;28;20309;-27
2024/01/24 06:18:44;;;;;;;38.88;5.35;;;;;;;;;;5075513;28;20032;-27
2024/01/24 06:21:09;;;;;;;45.30;6.17;;;;;;;;;;5074854;28;20500;-26
2024/01/24 06:23:34;;;;;;;38.73;5.57;;;;;;;;;;5075434;28;20247;-26
2024/01/24 06:26:00;;;;;;;42.05;5.35;;;;;;;;;;5075128;28;20251;-26
2024/01/24 06:28:25;;;;;;;40.33;6.10;;;;;;;;;;5075034;28;20092;-27
2024/01/24 06:30:51;;;;;;;40.35;5.60;;;;;;;;;;5074705;28;20054;-26
2024/01/24 06:33:16;;;;;;;48.60;6.22;;;;;;;;;;5074967;28;20092;-26
2024/01/24 06:35:42;;;;;;;47.50;6.03;;;;;;;;;;5074584;28;20478;-26
2024/01/24 06:38:07;;;;;;;52.20;5.70;;;;;;;;;;5074570;28;20267;-26
2024/01/24 06:40:32;;;;;;;48.63;5.27;;;;;;;;;;5074530;28;20254;-27
2024/01/24 06:42:57;;;;;;;41.80;5.47;;;;;;;;;;5074432;28;20362;-27
2024/01/24 06:45:22;;;;;;;36.17;5.13;;;;;;;;;;5073612;28;20021;-27
2024/01/24 06:47:47;;;;;;;40.43;4.63;;;;;;;;;;5074403;28;20247;-27
2024/01/24 06:50:13;;;;;;;35.00;4.93;;;;;;;;;;5074840;28;20243;-27
2024/01/24 06:52:39;;;;;;;38.13;5.30;;;;;;;;;;5074518;28;20028;-27
2024/01/24 06:55:04;;;;;;;35.88;5.20;;;;;;;;;;5074787;28;20452;-27
2024/01/24 06:57:29;;;;;;;33.53;4.85;;;;;;;;;;5074204;28;20067;-27
2024/01/24 06:59:54;;;;;;;33.17;5.00;;;;;;;;;;5074085;28;20392;-27
2024/01/24 07:02:20;;;;;;;36.03;5.50;;;;;;;;;;5073991;28;20295;-27
2024/01/24 07:04:45;;;;;;;38.97;5.37;;;;;;;;;;5074022;28;20257;-27
2024/01/24 07:07:10;;;;;;;37.58;5.47;;;;;;;;;;5074168;28;20295;-27
2024/01/24 07:09:36;;;;;;;36.67;5.40;;;;;;;;;;5073907;28;20044;-27
2024/01/24 07:12:02;;;;;;;39.92;5.25;;;;;;;;;;5074339;28;20475;-27
2024/01/24 07:14:27;;;;;;;37.53;5.43;;;;;;;;;;5073843;28;20048;-27
2024/01/24 07:16:53;;;;;;;44.07;6.13;;;;;;;;;;5074274;28;20016;-27
2024/01/24 07:19:18;;;;;;;47.38;5.57;;;;;;;;;;5073991;28;20698;-27
2024/01/24 07:21:43;;;;;;;43.67;6.00;;;;;;;;;;5073587;28;20519;-27
2024/01/24 07:24:08;;;;;;;40.78;5.97;;;;;;;;;;5074259;28;20254;-27
2024/01/24 07:26:34;;;;;;;50.50;6.50;;;;;;;;;;5072388;28;20020;-27
2024/01/24 07:28:59;;;;;;;41.03;5.07;;;;;;;;;;5073900;28;20251;-27
2024/01/24 07:31:24;;;;;;;35.20;5.15;;;;;;;;;;5073466;28;20020;-27
2024/01/24 07:33:50;;;;;;;42.57;6.27;;;;;;;;;;5073465;28;20032;-27
2024/01/24 07:36:15;;;;;;;35.67;5.43;;;;;;;;;;5073778;28;20251;-27
2024/01/24 07:38:40;;;;;;;37.00;5.40;;;;;;;;;;5073778;28;20463;-27
2024/01/24 07:41:06;;;;;;;53.20;5.82;;;;;;;;;;5073465;28;20017;-28
2024/01/24 07:43:33;;;;;;;39.13;5.75;;;;;;;;;;5073773;28;20012;-27
2024/01/24 07:45:58;;;;;;;35.72;5.03;;;;;;;;;;5073991;28;20027;-28
2024/01/24 07:48:23;;;;;;;37.05;5.60;;;;;;;;;;5073402;28;20372;-27
2024/01/24 07:50:49;;;;;;;39.40;5.00;;;;;;;;;;5073456;28;20016;-28
2024/01/24 07:53:14;;;;;;;37.58;5.30;;;;;;;;;;5073848;28;20015;-27
2024/01/24 07:55:39;;;;;;;39.00;6.05;;;;;;;;;;5073567;28;20556;-27
2024/01/24 07:58:04;;;;;;;44.63;5.70;;;;;;;;;;5073096;28;20479;-27
2024/01/24 08:00:30;;;;;;;42.92;5.88;;;;;;;;;;5073230;28;20312;-28
2024/01/24 08:02:57;;;;;;;43.80;5.75;;;;;;;;;;5073067;28;20045;-27
2024/01/24 08:05:23;;;;;;;37.75;5.72;;;;;;;;;;5073733;28;20012;-28
2024/01/24 08:07:49;;;;;;;42.00;6.22;;;;;;;;;;5071812;28;20028;-28
2024/01/24 08:10:15;;;;;;;45.30;7.20;;;;;;;;;;5073818;28;20071;-27
2024/01/24 08:12:40;;;;;;;34.28;4.95;;;;;;;;;;5073028;28;20261;-27
2024/01/24 08:15:06;;;;;;;30.88;4.95;;;;;;;;;;5073156;28;20021;-28
2024/01/24 08:17:32;;;;;;;33.72;5.28;;;;;;;;;;5073154;28;20056;-28
2024/01/24 08:19:58;;;;;;;47.05;6.93;;;;;;;;;;5073192;28;20020;-27
2024/01/24 08:22:23;;;;;;;41.10;6.00;;;;;;;;;;5073258;28;20447;-27
2024/01/24 08:24:48;;;;;;;38.03;5.40;;;;;;;;;;5073624;28;20020;-27
2024/01/24 08:27:13;;;;;;;43.77;6.33;;;;;;;;;;5073598;28;20283;-28
2024/01/24 08:29:38;;;;;;;33.58;4.85;;;;;;;;;;5073258;28;20341;-27
2024/01/24 08:32:04;;;;;;;38.73;6.37;;;;;;;;;;5073471;28;20020;-27
2024/01/24 08:34:29;;;;;;;40.17;6.45;;;;;;;;;;5073232;28;20685;-28
2024/01/24 08:36:54;;;;;;;35.13;4.97;;;;;;;;;;5072969;28;20475;-27
2024/01/24 08:39:19;;;;;;;36.33;5.97;;;;;;;;;;5073450;28;20267;-27
2024/01/24 08:41:45;;;;;;;37.50;5.53;;;;;;;;;;5072673;28;20297;-28
2024/01/24 08:44:10;;;;;;;43.87;5.50;;;;;;;;;;5073337;28;20270;-27
2024/01/24 08:46:35;;;;;;;40.35;5.82;;;;;;;;;;5072852;28;20644;-27
2024/01/24 08:49:00;;;;;;;44.25;6.13;;;;;;;;;;5072763;28;20020;-27
2024/01/24 08:51:31;;;;;;;34.97;5.23;;;;;;;;;;5073376;28;20020;-28
2024/01/24 08:53:56;;;;;;;39.55;5.85;;;;;;;;;;5073313;28;20024;-28
2024/01/24 08:56:21;;;;;;;35.37;6.03;;;;;;;;;;5073303;28;20024;-27
2024/01/24 08:58:46;;;;;;;41.37;5.37;;;;;;;;;;5072813;28;20263;-28
2024/01/24 09:01:11;;;;;;;41.23;6.03;;;;;;;;;;5072501;28;20290;-27
2024/01/24 09:03:37;;;;;;;33.30;4.97;;;;;;;;;;5072590;28;20744;-29
2024/01/24 09:06:02;;;;;;;42.03;5.28;;;;;;;;;;5072411;28;20261;-28
2024/01/24 09:08:27;;;;;;;37.28;5.85;;;;;;;;;;5073221;28;20013;-28
2024/01/24 09:10:53;;;;;;;41.97;6.13;;;;;;;;;;5076289;28;20526;-28
2024/01/24 09:13:21;;;;;;;35.70;5.40;;;;;;;;;;5076637;28;20066;-28
2024/01/24 09:15:46;;;;;;;37.08;5.15;;;;;;;;;;5076423;28;20655;-27
2024/01/24 09:18:11;;;;;;;41.67;5.50;;;;;;;;;;5076449;28;20008;-27
2024/01/24 09:20:36;;;;;;;44.58;6.30;;;;;;;;;;5076121;28;20017;-27
2024/01/24 09:23:01;;;;;;;43.63;5.50;;;;;;;;;;5076603;28;20029;-28
2024/01/24 09:25:27;;;;;;;43.50;6.70;;;;;;;;;;5076324;28;20734;-27
2024/01/24 09:27:56;;;;;;;37.58;5.90;;;;;;;;;;5074681;28;20361;-28
2024/01/24 09:30:21;;;;;;;42.25;6.28;;;;;;;;;;5076926;28;20027;-28
2024/01/24 09:32:46;;;;;;;43.47;6.13;;;;;;;;;;5076260;28;20096;-27
2024/01/24 09:35:12;;;;;;;32.70;5.50;;;;;;;;;;5075888;28;20017;-27
2024/01/24 09:37:37;;;;;;;45.55;5.72;;;;;;;;;;5074429;28;20277;-28
2024/01/24 09:40:02;;;;;;;45.35;5.57;;;;;;;;;;5075771;28;20066;-27
2024/01/24 09:42:28;;;;;;;42.63;6.53;;;;;;;;;;5076202;28;20021;-28
2024/01/24 09:44:57;;;;;;;37.58;5.43;;;;;;;;;;5075668;28;20020;-27
2024/01/24 09:47:22;;;;;;;36.97;5.40;;;;;;;;;;5074291;28;20046;-27
2024/01/24 09:49:49;;;;;;;36.03;5.65;;;;;;;;;;5076241;28;20021;-27
2024/01/24 09:52:16;;;;;;;38.95;5.65;;;;;;;;;;5074302;28;20159;-27
2024/01/24 09:54:42;;;;;;;37.50;5.60;;;;;;;;;;5075489;28;20027;-27
2024/01/24 09:57:08;;;;;;;36.20;5.75;;;;;;;;;;5075736;28;20033;-28
2024/01/24 09:59:33;;;;;;;39.28;6.78;;;;;;;;;;5075345;28;20021;-27
2024/01/24 10:01:58;;;;;;;40.50;6.30;;;;;;;;;;5075442;28;20044;-28
2024/01/24 10:04:24;;;;;;;40.00;6.00;;;;;;;;;;5075371;28;20247;-27
2024/01/24 10:06:49;;;;;;;38.50;5.63;;;;;;;;;;5057364;28;20070;-27
2024/01/24 10:09:15;;;;;;;37.20;6.68;;;;;;;;;;5075717;28;20013;-29
2024/01/24 10:11:40;;;;;;;33.33;6.00;;;;;;;;;;5074910;28;20024;-29
2024/01/24 10:14:05;;;;;;;35.07;6.47;;;;;;;;;;5075572;28;20255;-27
2024/01/24 10:16:31;;;;;;;31.80;6.10;;;;;;;;;;5074899;28;20036;-28
2024/01/24 10:18:56;;;;;;;32.33;6.47;;;;;;;;;;5074867;28;20065;-27
2024/01/24 10:21:22;;;;;;;29.23;6.38;;;;;;;;;;5073811;28;20375;-28
2024/01/24 10:23:47;;;;;;;36.60;6.35;;;;;;;;;;5074251;28;20059;-28
2024/01/24 10:26:13;;;;;;;32.93;5.80;;;;;;;;;;5073834;28;20162;-28
2024/01/24 10:28:39;;;;;;;33.35;6.00;;;;;;;;;;5056464;28;20013;-29
2024/01/24 10:31:04;;;;;;;31.20;6.07;;;;;;;;;;5073436;28;20012;-28
2024/01/24 10:33:30;;;;;;;31.60;5.53;;;;;;;;;;5072764;28;20017;-28
2024/01/24 10:36:01;;;;;;;37.40;5.60;;;;;;;;;;5073527;28;20103;-28
2024/01/24 10:38:29;;;;;;;31.23;5.80;;;;;;;;;;5074714;28;20017;-28
2024/01/24 10:41:01;;;;;;;34.58;6.30;;;;;;;;;;5074609;28;20020;-29
2024/01/24 10:43:26;;;;;;;30.17;6.03;;;;;;;;;;5074873;28;20107;-36
2024/01/24 10:45:52;;;;;;;27.98;5.68;;;;;;;;;;5073683;28;20420;-28
2024/01/24 10:48:18;;;;;;;30.90;6.10;;;;;;;;;;5074376;28;20423;-28
2024/01/24 10:50:43;;;;;;;31.42;6.32;;;;;;;;;;5073333;28;20024;-28
2024/01/24 10:53:09;;;;;;;29.58;6.07;;;;;;;;;;5074393;28;20031;-29
2024/01/24 10:55:34;;;;;;;31.20;6.20;;;;;;;;;;5074409;28;20031;-28
2024/01/24 10:57:59;;;;;;;32.28;5.97;;;;;;;;;;5074606;28;20024;-28
2024/01/24 11:00:25;;;;;;;32.58;6.65;;;;;;;;;;5074302;28;20024;-28
2024/01/24 11:02:52;;;;;;;32.17;6.75;;;;;;;;;;5074058;28;20055;-28
2024/01/24 11:05:24;;;;;;;30.80;5.53;;;;;;;;;;5074189;28;20062;-32
2024/01/24 11:08:02;;;;;;;31.90;6.45;;;;;;;;;;5074228;28;20048;-29
2024/01/24 11:10:31;;;;;;;33.90;6.05;;;;;;;;;;5073964;28;20012;-28
2024/01/24 11:12:56;;;;;;;37.63;7.28;;;;;;;;;;5073979;28;20051;-29
2024/01/24 11:15:22;;;;;;;32.15;6.50;;;;;;;;;;5073705;28;20479;-28
2024/01/24 11:18:14;;;;;;;31.02;6.20;;;;;;;;;;5073772;28;20043;-28
2024/01/24 11:20:53;;;;;;;34.92;6.63;;;;;;;;;;5073781;28;20055;-28
2024/01/24 11:23:44;;;;;;;39.17;7.13;;;;;;;;;;5073803;28;20451;-28
2024/01/24 11:26:19;;;;;;;33.20;5.88;;;;;;;;;;5072624;28;20021;-28
2024/01/24 11:28:45;;;;;;;36.60;6.60;;;;;;;;;;5074344;28;20062;-29
2024/01/24 11:31:10;;;;;;;34.17;6.03;;;;;;;;;;5073542;28;20474;-28
2024/01/24 11:33:36;;;;;;;32.85;6.32;;;;;;;;;;5073635;28;20013;-29
2024/01/24 11:36:02;;;;;;;31.42;5.90;;;;;;;;;;5055733;28;20016;-28
2024/01/24 11:38:28;;;;;;;36.33;6.45;;;;;;;;;;5073983;28;20025;-29
2024/01/24 11:41:00;;;;;;;33.22;6.22;;;;;;;;;;5072332;28;20013;-28
2024/01/24 11:43:26;;;;;;;41.47;6.05;;;;;;;;;;5073562;28;20025;-28
2024/01/24 11:45:55;;;;;;;30.67;6.30;;;;;;;;;;5073867;28;20032;-29
2024/01/24 11:48:20;;;;;;;39.33;6.57;;;;;;;;;;5073545;28;20091;-29
2024/01/24 11:50:52;;;;;;;37.60;6.47;;;;;;;;;;5073526;28;20048;-29
2024/01/24 11:53:18;;;;;;;34.15;5.55;;;;;;;;;;5073556;28;20376;-28
2024/01/24 11:55:49;;;;;;;30.98;5.68;;;;;;;;;;5072220;28;20024;-28
2024/01/24 11:58:15;;;;;;;32.75;5.22;;;;;;;;;;5073441;28;20510;-28
2024/01/24 12:00:40;;;;;;;40.90;5.68;;;;;;;;;;5073157;28;20024;-29
2024/01/24 12:03:06;;;;;;;29.38;5.28;;;;;;;;;;5072142;28;20025;-28
2024/01/24 12:05:32;;;;;;;35.55;5.32;;;;;;;;;;5073258;28;20468;-29
2024/01/24 12:07:57;;;;;;;33.03;5.25;;;;;;;;;;5071915;28;20019;-28
2024/01/24 12:10:23;;;;;;;35.90;5.50;;;;;;;;;;5073845;28;20027;-28
2024/01/24 12:12:49;;;;;;;30.10;4.97;;;;;;;;;;5073554;28;20745;-28
2024/01/24 12:15:14;;;;;;;32.47;4.93;;;;;;;;;;5073287;28;20029;-29
2024/01/24 12:17:40;;;;;;;36.45;5.32;;;;;;;;;;5073446;28;20085;-28
2024/01/24 12:20:07;;;;;;;32.20;5.15;;;;;;;;;;5072013;28;20020;-28
2024/01/24 12:22:33;;;;;;;33.65;4.75;;;;;;;;;;5073188;28;20493;-28
2024/01/24 12:24:58;;;;;;;32.60;4.78;;;;;;;;;;5073765;28;20091;-28
2024/01/24 12:27:23;;;;;;;32.05;4.55;;;;;;;;;;5073741;28;20493;-29
2024/01/24 12:29:50;;;;;;;29.48;4.47;;;;;;;;;;5073198;28;20074;-28
2024/01/24 12:32:15;;;;;;;34.50;5.05;;;;;;;;;;5073363;28;20031;-28
2024/01/24 12:34:45;;;;;;;41.03;6.00;;;;;;;;;;5073158;28;20468;-28
2024/01/24 12:37:10;;;;;;;40.65;5.05;;;;;;;;;;5073077;28;21016;-29
2024/01/24 12:39:35;;;;;;;34.58;5.40;;;;;;;;;;5073557;28;20024;-28
2024/01/24 12:42:01;;;;;;;31.75;4.40;;;;;;;;;;5073267;28;20480;-28
2024/01/24 12:44:26;;;;;;;28.83;4.53;;;;;;;;;;5075153;28;20023;-29
2024/01/24 12:46:58;;;;;;;41.00;5.45;;;;;;;;;;5077141;28;20100;-28
2024/01/24 12:49:24;;;;;;;33.45;4.82;;;;;;;;;;5076741;28;20016;-28
2024/01/24 12:51:49;;;;;;;42.80;4.95;;;;;;;;;;5077305;28;20023;-28
2024/01/24 12:54:14;;;;;;;28.65;5.35;;;;;;;;;;5076689;28;20013;-28
2024/01/24 12:56:40;;;;;;;34.67;5.22;;;;;;;;;;5075401;28;20039;-28
2024/01/24 12:59:06;;;;;;;29.27;4.40;;;;;;;;;;5077143;28;20017;-28
2024/01/24 13:01:31;;;;;;;34.10;4.28;;;;;;;;;;5075057;28;20387;-28
2024/01/24 13:03:56;;;;;;;30.48;4.80;;;;;;;;;;5076027;28;20020;-28
2024/01/24 13:06:21;;;;;;;41.50;5.17;;;;;;;;;;5076992;28;20009;-28
2024/01/24 13:08:47;;;;;;;38.10;4.90;;;;;;;;;;5076803;28;20779;-41
2024/01/24 13:11:12;;;;;;;30.73;4.32;;;;;;;;;;5075025;28;20464;-27
2024/01/24 13:13:37;;;;;;;34.63;5.47;;;;;;;;;;5077006;28;20066;-28
2024/01/24 13:16:03;;;;;;;39.00;5.20;;;;;;;;;;5075095;28;20686;-28
2024/01/24 13:18:28;;;;;;;32.28;4.63;;;;;;;;;;5076828;28;20104;-28
2024/01/24 13:20:53;;;;;;;30.52;4.50;;;;;;;;;;5076478;28;20040;-27
2024/01/24 13:23:18;;;;;;;31.80;4.73;;;;;;;;;;5076758;28;20027;-27
2024/01/24 13:25:43;;;;;;;30.67;4.83;;;;;;;;;;5076324;28;20658;-27
2024/01/24 13:28:09;;;;;;;33.83;4.93;;;;;;;;;;5075057;28;20281;-27
2024/01/24 13:30:34;;;;;;;36.08;4.63;;;;;;;;;;5074839;28;20017;-28
2024/01/24 13:33:00;;;;;;;33.22;4.60;;;;;;;;;;5076251;28;20016;-28
2024/01/24 13:35:25;;;;;;;26.92;5.15;;;;;;;;;;5076300;28;20025;-27
2024/01/24 13:37:50;;;;;;;24.80;4.97;;;;;;;;;;5075994;28;20021;-27
2024/01/24 13:40:16;;;;;;;26.60;4.57;;;;;;;;;;5076115;28;20270;-27
2024/01/24 13:42:42;;;;;;;28.75;4.32;;;;;;;;;;5074519;28;20107;-28
2024/01/24 13:45:07;;;;;;;25.90;4.30;;;;;;;;;;5074611;28;20016;-27
2024/01/24 13:47:32;;;;;;;38.17;4.40;;;;;;;;;;5075796;28;20032;-27
2024/01/24 13:49:57;;;;;;;31.93;4.93;;;;;;;;;;5075704;28;20096;-27
2024/01/24 13:52:23;;;;;;;35.25;4.95;;;;;;;;;;5074414;28;20788;-27
2024/01/24 13:54:48;;;;;;;38.88;4.93;;;;;;;;;;5075835;28;20032;-27
2024/01/24 13:57:13;;;;;;;34.17;4.78;;;;;;;;;;5076170;28;20027;-28
2024/01/24 13:59:38;;;;;;;39.00;4.95;;;;;;;;;;5075863;28;20017;-28
2024/01/24 14:02:04;;;;;;;41.33;4.60;;;;;;;;;;5075513;28;20041;-28
2024/01/24 14:04:29;;;;;;;31.90;5.38;;;;;;;;;;5074153;28;20645;-28
2024/01/24 14:06:54;;;;;;;37.58;4.78;;;;;;;;;;5075430;28;20061;-27
2024/01/24 14:09:19;;;;;;;34.08;5.13;;;;;;;;;;5074098;28;20375;-28
2024/01/24 14:11:46;;;;;;;30.48;4.60;;;;;;;;;;5075275;28;20024;-28
2024/01/24 14:14:12;;;;;;;39.60;5.18;;;;;;;;;;5075495;28;20412;-28
2024/01/24 14:16:37;;;;;;;37.08;4.93;;;;;;;;;;5073916;28;20097;-28
2024/01/24 14:19:02;;;;;;;35.22;4.65;;;;;;;;;;5073958;28;20020;-28
2024/01/24 14:21:27;;;;;;;36.10;5.18;;;;;;;;;;5075621;28;20365;-28
2024/01/24 14:23:53;;;;;;;40.58;4.93;;;;;;;;;;5075060;28;20015;-28